Time;durP1;ratioP1;P1;durP2;ratioP2;P2;SDS_P1;SDS_P2;PMS_P1;PMS_P2;Temp;Humidity;BMP_temperature;BMP_pressure;BME280_temperature;BME280_humidity;BME280_pressure;Samples;Min_cycle;Max_cycle;Signal;HPM_P1;HPM_P2
2021/05/25 00:00:56;;;;;;;0.93;0.77;;;10.60;59.20;;;;;;5103068;28;20225;-76
2021/05/25 00:03:23;;;;;;;1.42;0.80;;;10.60;59.20;;;;;;5101300;28;20201;-75
2021/05/25 00:05:50;;;;;;;1.63;0.80;;;10.60;59.20;;;;;;5099392;28;20205;-75
2021/05/25 00:08:17;;;;;;;0.75;0.75;;;10.50;59.10;;;;;;5100715;28;20252;-75
2021/05/25 00:10:43;;;;;;;0.95;0.75;;;10.50;59.10;;;;;;5102511;28;20205;-77
2021/05/25 00:13:10;;;;;;;1.30;0.80;;;10.50;59.10;;;;;;5102082;28;20225;-75
2021/05/25 00:15:37;;;;;;;0.77;0.60;;;10.50;58.20;;;;;;5102196;28;20602;-74
2021/05/25 00:18:05;;;;;;;0.77;0.63;;;10.50;57.80;;;;;;5101171;28;20201;-74
2021/05/25 00:20:32;;;;;;;2.80;0.70;;;10.50;57.80;;;;;;5100598;28;20220;-76
2021/05/25 00:22:59;;;;;;;1.55;0.65;;;10.40;57.20;;;;;;5102820;28;20260;-75
2021/05/25 00:25:26;;;;;;;1.77;0.60;;;10.40;56.70;;;;;;5103316;28;20201;-77
2021/05/25 00:27:54;;;;;;;1.77;0.80;;;10.40;57.20;;;;;;5101961;28;20229;-77
2021/05/25 00:30:21;;;;;;;1.52;0.60;;;10.40;57.30;;;;;;5101316;28;20238;-75
2021/05/25 00:32:48;;;;;;;1.70;0.70;;;10.30;57.60;;;;;;5103906;28;20255;-75
2021/05/25 00:35:15;;;;;;;2.10;0.73;;;10.30;57.90;;;;;;5103107;28;20247;-75
2021/05/25 00:37:42;;;;;;;0.70;0.70;;;10.20;57.80;;;;;;5104485;28;20223;-76
2021/05/25 00:40:11;;;;;;;1.17;0.68;;;10.20;58.60;;;;;;5105931;28;20236;-75
2021/05/25 00:42:38;;;;;;;1.58;0.85;;;10.10;57.90;;;;;;5115121;28;20264;-76
2021/05/25 00:45:06;;;;;;;1.17;0.82;;;10.10;58.60;;;;;;5115828;28;20201;-74
2021/05/25 00:47:33;;;;;;;1.55;1.02;;;10.00;58.70;;;;;;5105118;28;20209;-75
2021/05/25 00:50:10;;;;;;;1.45;0.80;;;10.00;58.70;;;;;;5101084;28;20300;-75
2021/05/25 00:52:38;;;;;;;1.52;0.55;;;10.00;58.70;;;;;;5099165;28;20225;-76
2021/05/25 00:55:07;;;;;;;2.05;1.10;;;10.00;58.70;;;;;;5100137;28;20309;-76
2021/05/25 00:57:35;;;;;;;0.75;0.63;;;9.90;59.60;;;;;;5098379;28;20262;-77
2021/05/25 01:00:02;;;;;;;1.30;0.70;;;9.90;59.60;;;;;;5098311;28;20726;-75
2021/05/25 01:02:28;;;;;;;1.75;0.82;;;9.80;59.50;;;;;;5098155;28;20221;-75
2021/05/25 01:04:55;;;;;;;1.90;0.82;;;9.80;60.00;;;;;;5097386;28;20237;-75
2021/05/25 01:07:21;;;;;;;0.88;0.80;;;9.80;60.00;;;;;;5094835;28;20205;-75
2021/05/25 01:09:48;;;;;;;0.75;0.63;;;9.70;60.20;;;;;;5094532;28;20688;-75
2021/05/25 01:12:14;;;;;;;1.92;0.80;;;9.80;59.80;;;;;;5093970;28;20225;-75
2021/05/25 01:14:46;;;;;;;4.57;1.00;;;9.80;60.30;;;;;;5093578;28;20217;-76
2021/05/25 01:17:12;;;;;;;2.58;1.13;;;9.80;60.00;;;;;;5092584;28;20682;-75
2021/05/25 01:19:39;;;;;;;3.20;1.10;;;9.70;61.00;;;;;;5093116;28;20376;-75
2021/05/25 01:22:06;;;;;;;0.90;0.90;;;9.80;61.60;;;;;;5092564;28;20260;-75
2021/05/25 01:24:33;;;;;;;0.98;0.80;;;9.80;61.90;;;;;;5095554;28;20261;-76
2021/05/25 01:27:01;;;;;;;1.00;0.90;;;9.80;62.10;;;;;;5095642;28;20213;-74
2021/05/25 01:29:28;;;;;;;1.88;0.90;;;9.80;62.50;;;;;;5092687;28;20260;-75
2021/05/25 01:31:54;;;;;;;5.10;1.15;;;9.70;63.10;;;;;;5092436;28;20241;-75
2021/05/25 01:34:21;;;;;;;1.30;0.88;;;9.80;63.90;;;;;;5092122;28;20205;-76
2021/05/25 01:36:47;;;;;;;3.42;1.00;;;9.80;63.90;;;;;;5092392;28;20342;-76
2021/05/25 01:39:15;;;;;;;2.13;1.13;;;9.80;64.50;;;;;;5092613;28;20297;-76
2021/05/25 01:41:42;;;;;;;2.78;1.10;;;9.80;64.80;;;;;;5092686;28;20252;-76
2021/05/25 01:44:09;;;;;;;1.48;0.90;;;9.80;65.00;;;;;;5092575;28;20213;-76
2021/05/25 01:46:35;;;;;;;1.33;0.90;;;9.80;65.10;;;;;;5092579;28;20212;-76
2021/05/25 01:49:02;;;;;;;1.95;0.80;;;9.80;65.20;;;;;;5099574;28;20221;-76
2021/05/25 01:51:29;;;;;;;1.95;1.05;;;9.80;65.20;;;;;;5092240;28;20221;-76
2021/05/25 01:53:55;;;;;;;2.58;1.10;;;9.80;65.10;;;;;;5092079;28;20201;-75
2021/05/25 01:56:22;;;;;;;2.17;1.15;;;9.80;64.00;;;;;;5091501;28;20296;-75
2021/05/25 01:58:49;;;;;;;1.17;1.02;;;9.80;63.90;;;;;;5091358;28;20285;-75
2021/05/25 02:01:15;;;;;;;2.85;0.90;;;9.80;63.80;;;;;;5092212;28;20260;-75
2021/05/25 02:03:42;;;;;;;2.05;0.90;;;9.80;63.10;;;;;;5092083;28;20632;-75
2021/05/25 02:06:10;;;;;;;1.35;1.02;;;9.80;62.50;;;;;;5092297;28;20208;-75
2021/05/25 02:08:37;;;;;;;5.43;0.90;;;9.80;61.50;;;;;;5092067;28;20320;-76
2021/05/25 02:11:07;;;;;;;6.20;0.95;;;9.80;60.70;;;;;;5094700;28;20212;-75
2021/05/25 02:13:36;;;;;;;1.00;0.90;;;9.90;59.60;;;;;;5104546;28;20209;-76
2021/05/25 02:16:05;;;;;;;2.45;1.10;;;10.00;58.70;;;;;;5091659;28;20711;-76
2021/05/25 02:18:33;;;;;;;2.97;0.82;;;10.00;56.90;;;;;;5091716;28;20198;-74
2021/05/25 02:21:01;;;;;;;1.95;0.75;;;10.00;56.50;;;;;;5091447;28;20630;-75
2021/05/25 02:23:29;;;;;;;0.85;0.70;;;10.00;55.70;;;;;;5091725;28;20300;-75
2021/05/25 02:25:56;;;;;;;1.73;0.90;;;10.00;54.70;;;;;;5091593;28;20208;-74
2021/05/25 02:28:23;;;;;;;1.42;0.98;;;10.10;54.90;;;;;;5091158;28;20244;-75
2021/05/25 02:30:51;;;;;;;3.08;0.88;;;10.20;55.00;;;;;;5091561;28;20295;-75
2021/05/25 02:33:21;;;;;;;2.53;1.00;;;10.00;55.60;;;;;;5091301;28;20237;-75
2021/05/25 02:35:51;;;;;;;1.95;1.10;;;10.10;55.90;;;;;;5097374;28;20240;-75
2021/05/25 02:38:18;;;;;;;1.45;0.80;;;10.10;55.90;;;;;;5091581;28;20201;-75
2021/05/25 02:40:46;;;;;;;1.30;0.88;;;10.10;55.70;;;;;;5091785;28;20296;-76
2021/05/25 02:43:14;;;;;;;1.30;0.98;;;10.10;55.60;;;;;;5091246;28;20308;-75
2021/05/25 02:45:40;;;;;;;0.70;0.60;;;10.10;55.40;;;;;;5091276;28;20789;-75
2021/05/25 02:48:08;;;;;;;1.15;0.70;;;10.20;54.60;;;;;;5090875;28;20221;-75
2021/05/25 02:50:35;;;;;;;2.28;0.80;;;10.10;54.10;;;;;;5091620;28;20241;-77
2021/05/25 02:53:02;;;;;;;3.72;0.90;;;10.20;53.60;;;;;;5091247;28;20300;-76
2021/05/25 02:55:30;;;;;;;1.50;0.68;;;10.20;52.70;;;;;;5092483;28;20326;-75
2021/05/25 02:57:57;;;;;;;0.90;0.70;;;10.30;52.80;;;;;;5091807;28;20243;-75
2021/05/25 03:00:26;;;;;;;2.03;0.98;;;10.40;52.50;;;;;;5093012;28;20205;-77
2021/05/25 03:02:52;;;;;;;0.95;0.80;;;10.40;51.90;;;;;;5096316;28;20274;-75
2021/05/25 03:05:22;;;;;;;1.77;0.75;;;10.40;51.20;;;;;;5092426;28;20287;-75
2021/05/25 03:07:49;;;;;;;1.60;0.68;;;10.50;51.40;;;;;;5092648;28;20220;-75
2021/05/25 03:10:17;;;;;;;6.25;1.02;;;10.40;51.70;;;;;;5097950;28;20343;-75
2021/05/25 03:12:45;;;;;;;2.03;0.75;;;10.50;51.70;;;;;;5098340;28;20231;-76
2021/05/25 03:15:14;;;;;;;0.70;0.70;;;10.50;51.80;;;;;;5097451;28;20269;-76
2021/05/25 03:17:41;;;;;;;1.77;0.98;;;10.50;51.80;;;;;;5098129;28;20289;-76
2021/05/25 03:20:10;;;;;;;1.00;0.80;;;10.50;53.00;;;;;;5097848;28;20200;-75
2021/05/25 03:22:39;;;;;;;1.77;0.70;;;10.50;52.30;;;;;;5098324;28;20225;-76
2021/05/25 03:25:07;;;;;;;2.15;0.90;;;10.40;52.50;;;;;;5096269;28;20567;-74
2021/05/25 03:27:34;;;;;;;2.85;0.60;;;10.40;52.40;;;;;;5096778;28;20213;-75
2021/05/25 03:30:01;;;;;;;4.20;1.23;;;10.50;51.70;;;;;;5096659;28;20207;-75
2021/05/25 03:32:27;;;;;;;1.15;0.90;;;10.50;51.50;;;;;;5114991;28;20240;-78
2021/05/25 03:34:53;;;;;;;4.43;0.93;;;10.50;49.70;;;;;;5124151;28;20260;-79
2021/05/25 03:37:20;;;;;;;2.33;0.73;;;10.50;50.10;;;;;;5120097;28;20201;-76
2021/05/25 03:39:47;;;;;;;2.85;0.90;;;10.50;49.60;;;;;;5111838;28;20347;-76
2021/05/25 03:42:13;;;;;;;1.10;0.75;;;10.60;49.80;;;;;;5098182;28;20253;-75
2021/05/25 03:44:40;;;;;;;3.92;1.15;;;10.60;49.80;;;;;;5119170;28;20287;-75
2021/05/25 03:47:06;;;;;;;3.45;0.90;;;10.60;49.80;;;;;;5115184;28;20664;-75
2021/05/25 03:49:33;;;;;;;3.28;1.33;;;10.60;49.80;;;;;;5114754;28;20758;-76
2021/05/25 03:51:59;;;;;;;2.17;0.70;;;10.60;49.80;;;;;;5115538;28;20315;-76
2021/05/25 03:54:29;;;;;;;2.17;0.90;;;10.60;49.80;;;;;;5116437;28;20695;-75
2021/05/25 03:56:59;;;;;;;1.35;0.80;;;10.60;49.20;;;;;;5127104;28;20188;-77
2021/05/25 03:59:25;;;;;;;6.38;0.90;;;10.60;49.70;;;;;;5140069;28;20244;-75
2021/05/25 04:01:52;;;;;;;0.95;0.60;;;10.50;49.40;;;;;;5124959;28;20205;-75
2021/05/25 04:04:19;;;;;;;1.95;0.88;;;10.50;49.60;;;;;;5119448;28;20201;-75
2021/05/25 04:06:45;;;;;;;2.75;0.80;;;10.50;49.70;;;;;;5110094;28;20214;-80
2021/05/25 04:09:12;;;;;;;3.80;0.82;;;10.60;49.70;;;;;;5113536;28;20213;-77
2021/05/25 04:11:38;;;;;;;3.85;0.70;;;10.60;49.70;;;;;;5122547;28;20208;-80
2021/05/25 04:14:07;;;;;;;0.70;0.50;;;10.60;49.70;;;;;;5139300;28;20204;-80
2021/05/25 04:16:33;;;;;;;1.92;0.50;;;10.60;49.80;;;;;;5105684;28;20229;-75
2021/05/25 04:19:00;;;;;;;0.80;0.60;;;10.60;49.80;;;;;;5108062;28;20193;-76
2021/05/25 04:21:26;;;;;;;1.05;0.40;;;10.60;49.80;;;;;;5096533;28;20221;-75
2021/05/25 04:23:53;;;;;;;0.60;0.60;;;10.60;49.80;;;;;;5094509;28;20229;-75
2021/05/25 04:26:19;;;;;;;1.67;0.90;;;10.60;49.50;;;;;;5095021;28;20205;-76
2021/05/25 04:28:45;;;;;;;1.05;0.63;;;10.60;49.20;;;;;;5096057;28;20260;-76
2021/05/25 04:31:13;;;;;;;0.45;0.40;;;10.50;49.70;;;;;;5115973;28;20299;-78
2021/05/25 04:33:39;;;;;;;0.80;0.80;;;10.50;49.70;;;;;;5115775;28;20268;-75
2021/05/25 04:36:06;;;;;;;1.30;0.60;;;10.50;49.70;;;;;;5116305;28;20283;-75
2021/05/25 04:38:32;;;;;;;3.42;0.60;;;10.50;49.70;;;;;;5123695;28;20242;-74
2021/05/25 04:40:58;;;;;;;2.58;0.85;;;10.50;49.70;;;;;;5125775;28;20231;-74
2021/05/25 04:43:25;;;;;;;0.95;0.60;;;10.50;50.10;;;;;;5121630;28;20239;-75
2021/05/25 04:45:51;;;;;;;1.25;0.60;;;10.40;50.10;;;;;;5114931;28;20212;-75
2021/05/25 04:48:19;;;;;;;0.60;0.60;;;10.40;50.00;;;;;;5113579;28;20711;-75
2021/05/25 04:50:45;;;;;;;3.50;0.68;;;10.40;49.60;;;;;;5114500;28;20545;-75
2021/05/25 04:53:12;;;;;;;1.30;0.50;;;10.50;49.70;;;;;;5095588;28;20258;-74
2021/05/25 04:55:38;;;;;;;2.90;0.50;;;10.50;49.70;;;;;;5094026;28;20300;-76
2021/05/25 04:58:05;;;;;;;0.70;0.60;;;10.60;49.80;;;;;;5093785;28;20201;-76
2021/05/25 05:00:32;;;;;;;1.30;0.60;;;10.90;48.90;;;;;;5085984;28;20286;-74
2021/05/25 05:02:58;;;;;;;1.52;0.50;;;11.00;46.80;;;;;;5073225;28;20261;-75
2021/05/25 05:05:25;;;;;;;1.30;0.60;;;11.00;46.80;;;;;;5072956;28;20251;-76
2021/05/25 05:07:52;;;;;;;1.20;0.60;;;10.90;47.10;;;;;;5071603;28;20301;-74
2021/05/25 05:10:20;;;;;;;2.45;0.90;;;10.90;47.00;;;;;;5073603;28;20297;-76
2021/05/25 05:12:47;;;;;;;0.60;0.60;;;11.00;47.00;;;;;;5075013;28;20508;-75
2021/05/25 05:15:14;;;;;;;2.28;0.70;;;11.00;46.10;;;;;;5075190;28;20201;-75
2021/05/25 05:17:41;;;;;;;0.85;0.60;;;11.10;45.80;;;;;;5074799;28;20355;-75
2021/05/25 05:20:10;;;;;;;3.67;0.90;;;11.50;44.40;;;;;;5073332;28;20233;-76
2021/05/25 05:22:38;;;;;;;2.03;0.98;;;11.70;43.50;;;;;;5072517;28;20629;-75
2021/05/25 05:25:06;;;;;;;1.73;0.68;;;11.90;42.90;;;;;;5072573;28;20299;-77
2021/05/25 05:27:32;;;;;;;2.50;0.88;;;11.80;42.20;;;;;;5087724;28;20205;-76
2021/05/25 05:29:58;;;;;;;1.42;0.80;;;11.70;42.00;;;;;;5091678;28;20660;-75
2021/05/25 05:32:25;;;;;;;0.80;0.60;;;11.60;42.50;;;;;;5092007;28;20827;-76
2021/05/25 05:34:51;;;;;;;2.15;1.00;;;11.70;43.00;;;;;;5092958;28;20288;-75
2021/05/25 05:37:21;;;;;;;1.35;0.70;;;12.10;41.50;;;;;;5092695;28;20232;-75
2021/05/25 05:39:48;;;;;;;1.70;0.82;;;12.40;40.90;;;;;;5092606;28;20216;-76
2021/05/25 05:42:15;;;;;;;3.15;0.88;;;12.60;39.00;;;;;;5092412;28;20833;-75
2021/05/25 05:44:43;;;;;;;1.83;0.77;;;12.50;39.00;;;;;;5092685;28;20259;-75
2021/05/25 05:47:10;;;;;;;1.33;0.90;;;12.40;39.20;;;;;;5092030;28;20232;-75
2021/05/25 05:49:38;;;;;;;2.20;0.95;;;12.20;39.20;;;;;;5092367;28;20257;-76
2021/05/25 05:52:05;;;;;;;0.85;0.77;;;12.60;38.80;;;;;;5091997;28;20229;-75
2021/05/25 05:54:32;;;;;;;3.10;0.70;;;13.50;36.10;;;;;;5092351;28;20291;-75
2021/05/25 05:56:59;;;;;;;2.30;0.80;;;13.80;34.70;;;;;;5091852;28;20217;-76
2021/05/25 05:59:25;;;;;;;1.10;0.57;;;14.10;33.90;;;;;;5092235;28;20240;-76
2021/05/25 06:01:52;;;;;;;1.27;0.95;;;14.20;33.40;;;;;;5092157;28;20311;-76
2021/05/25 06:04:18;;;;;;;1.77;0.77;;;14.00;33.30;;;;;;5091997;28;20755;-76
2021/05/25 06:06:45;;;;;;;2.60;0.80;;;14.20;33.40;;;;;;5092627;28;20247;-76
2021/05/25 06:09:11;;;;;;;0.95;0.65;;;14.60;33.00;;;;;;5091483;28;20315;-75
2021/05/25 06:11:37;;;;;;;1.83;0.70;;;14.50;32.60;;;;;;5091795;28;20314;-75
2021/05/25 06:14:05;;;;;;;2.25;0.60;;;14.90;31.90;;;;;;5092392;28;20553;-75
2021/05/25 06:16:32;;;;;;;3.38;0.70;;;15.10;32.10;;;;;;5092725;28;20288;-77
2021/05/25 06:18:59;;;;;;;2.35;0.85;;;14.60;33.80;;;;;;5092062;28;20205;-75
2021/05/25 06:21:26;;;;;;;5.03;1.30;;;13.90;35.50;;;;;;5092174;28;20308;-76
2021/05/25 06:23:52;;;;;;;1.27;1.00;;;13.30;36.80;;;;;;5093511;28;20213;-77
2021/05/25 06:26:20;;;;;;;2.25;0.90;;;12.80;40.10;;;;;;5094639;28;20212;-76
2021/05/25 06:28:47;;;;;;;3.25;0.70;;;12.20;43.80;;;;;;5092671;28;20262;-76
2021/05/25 06:31:14;;;;;;;2.45;0.70;;;11.80;45.20;;;;;;5093347;28;20221;-76
2021/05/25 06:33:41;;;;;;;1.65;0.68;;;11.80;47.60;;;;;;5094996;28;20255;-78
2021/05/25 06:36:07;;;;;;;4.10;0.90;;;11.90;45.10;;;;;;5094805;28;20344;-74
2021/05/25 06:38:34;;;;;;;1.60;0.73;;;12.10;46.10;;;;;;5097805;28;20288;-75
2021/05/25 06:41:01;;;;;;;1.15;0.90;;;11.90;45.90;;;;;;5093364;28;20229;-75
2021/05/25 06:43:27;;;;;;;0.77;0.75;;;11.70;46.00;;;;;;5100496;28;20234;-75
2021/05/25 06:45:54;;;;;;;1.35;0.63;;;11.60;47.10;;;;;;5101871;28;20212;-75
2021/05/25 06:48:21;;;;;;;0.63;0.63;;;11.50;47.60;;;;;;5095587;28;20221;-76
2021/05/25 06:50:47;;;;;;;2.15;0.75;;;11.70;46.20;;;;;;5096834;28;20211;-76
2021/05/25 06:53:15;;;;;;;3.65;0.98;;;11.60;46.50;;;;;;5095531;28;20720;-76
2021/05/25 06:55:41;;;;;;;4.30;1.13;;;11.50;49.90;;;;;;5096927;28;20258;-79
2021/05/25 06:58:08;;;;;;;1.02;1.02;;;11.50;50.80;;;;;;5098862;28;20240;-77
2021/05/25 07:00:34;;;;;;;2.05;0.82;;;11.30;51.50;;;;;;5097164;28;20205;-77
2021/05/25 07:03:01;;;;;;;3.55;1.30;;;11.10;52.50;;;;;;5095852;28;20221;-74
2021/05/25 07:05:30;;;;;;;2.38;0.80;;;11.10;54.70;;;;;;5095853;28;20290;-76
2021/05/25 07:07:57;;;;;;;1.30;1.05;;;11.00;52.20;;;;;;5095237;28;20200;-76
2021/05/25 07:10:27;;;;;;;1.00;0.90;;;10.90;53.40;;;;;;5094808;28;20828;-75
2021/05/25 07:12:53;;;;;;;2.17;1.02;;;10.80;54.30;;;;;;5096035;28;20228;-75
2021/05/25 07:15:19;;;;;;;1.40;1.10;;;10.80;55.40;;;;;;5096317;28;20273;-76
2021/05/25 07:17:46;;;;;;;3.35;1.50;;;10.70;56.00;;;;;;5096701;28;20331;-77
2021/05/25 07:20:14;;;;;;;2.05;1.10;;;10.70;57.90;;;;;;5096372;28;20201;-76
2021/05/25 07:22:41;;;;;;;1.70;1.10;;;10.70;56.90;;;;;;5097646;28;20260;-75
2021/05/25 07:25:09;;;;;;;2.05;1.25;;;10.80;58.50;;;;;;5100277;28;20505;-76
2021/05/25 07:27:36;;;;;;;1.75;0.70;;;10.80;57.50;;;;;;5099764;28;20673;-77
2021/05/25 07:30:03;;;;;;;2.05;0.80;;;10.80;59.10;;;;;;5098961;28;20225;-76
2021/05/25 07:32:30;;;;;;;3.10;1.00;;;10.80;59.40;;;;;;5097052;28;20786;-76
2021/05/25 07:34:56;;;;;;;4.43;0.77;;;10.80;59.40;;;;;;5097880;28;20209;-77
2021/05/25 07:37:23;;;;;;;3.72;1.65;;;10.70;59.30;;;;;;5097448;28;20224;-76
2021/05/25 07:39:50;;;;;;;0.88;0.82;;;10.70;59.30;;;;;;5097832;28;20240;-77
2021/05/25 07:42:16;;;;;;;1.85;1.05;;;10.70;59.30;;;;;;5100084;28;20436;-76
2021/05/25 07:44:43;;;;;;;3.03;0.75;;;10.70;60.90;;;;;;5104198;28;20206;-78
2021/05/25 07:47:09;;;;;;;3.47;1.00;;;10.80;60.00;;;;;;5104903;28;20205;-76
2021/05/25 07:49:36;;;;;;;2.35;1.42;;;11.00;59.60;;;;;;5109186;28;20275;-78
2021/05/25 07:52:06;;;;;;;2.28;0.90;;;11.40;60.00;;;;;;5096390;28;20255;-76
2021/05/25 07:54:33;;;;;;;2.53;1.08;;;11.90;56.00;;;;;;5095571;28;20219;-76
2021/05/25 07:57:00;;;;;;;3.03;1.10;;;11.90;53.90;;;;;;5096806;28;20217;-76
2021/05/25 07:59:27;;;;;;;1.88;1.10;;;12.00;54.00;;;;;;5097828;28;20231;-76
2021/05/25 08:01:55;;;;;;;1.67;0.80;;;12.10;52.50;;;;;;5098589;28;20260;-76
2021/05/25 08:04:22;;;;;;;2.83;0.90;;;11.90;54.10;;;;;;5099055;28;20205;-76
2021/05/25 08:06:48;;;;;;;2.33;0.85;;;11.90;56.80;;;;;;5099227;28;20209;-77
2021/05/25 08:09:15;;;;;;;2.10;1.10;;;11.70;55.60;;;;;;5097129;28;20233;-75
2021/05/25 08:11:43;;;;;;;2.80;1.15;;;11.50;58.50;;;;;;5097364;28;20263;-76
2021/05/25 08:14:10;;;;;;;3.15;1.13;;;11.60;60.10;;;;;;5097230;28;20614;-76
2021/05/25 08:16:39;;;;;;;1.95;0.93;;;11.60;58.50;;;;;;5098595;28;20327;-74
2021/05/25 08:19:12;;;;;;;2.05;0.93;;;11.70;58.70;;;;;;5098032;28;20208;-75
2021/05/25 08:21:39;;;;;;;6.43;1.55;;;11.50;60.00;;;;;;5101793;28;20236;-75
2021/05/25 08:24:07;;;;;;;4.15;1.08;;;11.40;61.70;;;;;;5109457;28;20205;-77
2021/05/25 08:26:34;;;;;;;4.75;1.50;;;11.50;62.20;;;;;;5116539;28;20189;-75
2021/05/25 08:29:01;;;;;;;7.97;1.90;;;11.50;63.40;;;;;;5115524;28;20228;-74
2021/05/25 08:31:28;;;;;;;4.85;0.98;;;11.50;63.40;;;;;;5111481;28;20237;-74
2021/05/25 08:33:57;;;;;;;2.63;1.30;;;11.60;63.20;;;;;;5096391;28;20209;-76
2021/05/25 08:36:23;;;;;;;1.50;1.02;;;11.90;61.60;;;;;;5095270;28;20201;-75
2021/05/25 08:38:49;;;;;;;2.05;1.50;;;11.90;59.10;;;;;;5097612;28;20247;-76
2021/05/25 08:41:16;;;;;;;5.28;1.13;;;11.90;59.10;;;;;;5095874;28;20225;-75
2021/05/25 08:43:42;;;;;;;3.53;1.35;;;12.00;60.50;;;;;;5093812;28;20282;-75
2021/05/25 08:46:09;;;;;;;2.83;1.10;;;12.10;60.00;;;;;;5094881;28;20208;-75
2021/05/25 08:48:40;;;;;;;2.50;1.52;;;12.10;59.70;;;;;;5097498;28;20649;-75
2021/05/25 08:51:08;;;;;;;2.08;1.20;;;12.10;58.20;;;;;;5095936;28;20201;-75
2021/05/25 08:53:34;;;;;;;2.00;1.10;;;12.50;58.80;;;;;;5094506;28;20643;-76
2021/05/25 08:56:02;;;;;;;2.30;1.15;;;13.10;55.00;;;;;;5094256;28;20205;-76
2021/05/25 08:58:28;;;;;;;3.95;1.13;;;13.50;51.50;;;;;;5093817;28;20236;-76
2021/05/25 09:00:57;;;;;;;2.20;0.82;;;13.50;48.70;;;;;;5093865;28;20253;-76
2021/05/25 09:03:24;;;;;;;3.78;0.95;;;13.40;46.10;;;;;;5094873;28;20818;-75
2021/05/25 09:05:55;;;;;;;2.08;1.02;;;13.30;45.50;;;;;;5095150;28;20296;-75
2021/05/25 09:08:22;;;;;;;2.13;1.00;;;13.60;45.20;;;;;;5094212;28;20205;-77
2021/05/25 09:10:50;;;;;;;1.38;0.70;;;13.80;44.30;;;;;;5095971;28;20205;-76
2021/05/25 09:13:17;;;;;;;1.75;1.05;;;13.60;42.90;;;;;;5094391;28;20706;-76
2021/05/25 09:15:47;;;;;;;1.30;1.05;;;13.60;42.00;;;;;;5093604;28;20634;-76
2021/05/25 09:18:15;;;;;;;4.75;1.77;;;13.40;43.40;;;;;;5093814;28;20209;-76
2021/05/25 09:20:47;;;;;;;2.35;0.90;;;13.20;42.50;;;;;;5100659;28;20197;-75
2021/05/25 09:23:16;;;;;;;3.25;1.10;;;13.30;42.60;;;;;;5094846;28;20225;-76
2021/05/25 09:25:58;;;;;;;1.30;0.90;;;13.60;42.90;;;;;;5096684;28;20232;-74
2021/05/25 09:28:24;;;;;;;2.92;0.90;;;13.60;40.50;;;;;;5094992;28;20208;-76
2021/05/25 09:30:51;;;;;;;1.38;0.70;;;13.60;39.50;;;;;;5104819;28;20224;-73
2021/05/25 09:33:20;;;;;;;4.80;0.95;;;13.60;39.50;;;;;;5106319;28;20243;-74
2021/05/25 09:35:49;;;;;;;6.88;1.20;;;13.50;39.20;;;;;;5104917;28;20205;-76
2021/05/25 09:38:19;;;;;;;1.02;0.70;;;13.30;40.10;;;;;;5096116;28;20209;-75
2021/05/25 09:40:48;;;;;;;4.88;1.58;;;13.40;40.50;;;;;;5097917;28;20189;-76
2021/05/25 09:43:22;;;;;;;4.88;0.80;;;13.80;39.20;;;;;;5097123;28;20278;-74
2021/05/25 09:46:00;;;;;;;3.67;1.10;;;14.00;38.80;;;;;;5098350;28;20205;-75
2021/05/25 09:48:27;;;;;;;3.70;0.85;;;14.10;38.20;;;;;;5097433;28;20209;-75
2021/05/25 09:50:54;;;;;;;2.05;0.80;;;14.20;37.20;;;;;;5096438;28;20209;-76
2021/05/25 09:53:23;;;;;;;1.70;0.90;;;14.50;36.90;;;;;;5093624;28;20205;-75
2021/05/25 09:55:52;;;;;;;1.42;0.80;;;14.50;35.10;;;;;;5093239;28;20296;-75
2021/05/25 09:58:19;;;;;;;1.13;0.90;;;14.50;35.70;;;;;;5092612;28;20204;-75
2021/05/25 10:00:46;;;;;;;4.03;1.17;;;14.80;33.90;;;;;;5092561;28;20798;-76
2021/05/25 10:03:16;;;;;;;2.58;1.02;;;14.90;34.00;;;;;;5093945;28;20229;-76
2021/05/25 10:05:45;;;;;;;3.53;1.00;;;14.90;34.00;;;;;;5093203;28;20607;-77
2021/05/25 10:08:12;;;;;;;4.35;1.05;;;14.80;33.50;;;;;;5093678;28;20295;-75
2021/05/25 10:10:41;;;;;;;2.63;1.33;;;14.80;34.00;;;;;;5092485;28;20205;-77
2021/05/25 10:13:09;;;;;;;1.33;0.90;;;15.30;34.10;;;;;;5092173;28;20225;-76
2021/05/25 10:15:35;;;;;;;3.10;1.00;;;15.50;32.30;;;;;;5092537;28;20205;-76
2021/05/25 10:20:59;;;;;;;2.60;1.20;;;15.50;32.20;;;;;;5094856;28;20404;-75
2021/05/25 10:23:28;;;;;;;1.48;1.00;;;15.40;31.90;;;;;;5103778;28;20425;-75
2021/05/25 10:25:57;;;;;;;3.08;1.00;;;14.90;32.30;;;;;;5098293;28;20205;-76
2021/05/25 10:28:25;;;;;;;0.90;0.65;;;15.00;32.00;;;;;;5093341;28;20201;-76
2021/05/25 10:30:56;;;;;;;5.60;0.93;;;15.10;32.40;;;;;;5093922;28;20212;-74
2021/05/25 10:33:33;;;;;;;2.97;1.58;;;14.90;31.60;;;;;;5094857;28;20213;-75
2021/05/25 10:36:03;;;;;;;3.53;1.10;;;14.70;32.70;;;;;;5096289;28;20200;-75
2021/05/25 10:38:32;;;;;;;1.77;0.80;;;14.80;32.90;;;;;;5094937;28;20205;-77
2021/05/25 10:41:01;;;;;;;2.67;0.95;;;15.10;32.30;;;;;;5093989;28;20300;-74
2021/05/25 10:43:46;;;;;;;3.05;1.30;;;15.10;31.30;;;;;;5095456;28;20660;-77
2021/05/25 10:46:17;;;;;;;3.63;1.20;;;15.10;30.80;;;;;;5100024;28;20219;-76
2021/05/25 10:48:54;;;;;;;3.00;0.90;;;15.30;31.50;;;;;;5098471;28;20228;-76
2021/05/25 10:51:21;;;;;;;3.15;1.48;;;15.40;30.80;;;;;;5093946;28;20228;-75
2021/05/25 10:54:25;;;;;;;7.10;1.27;;;15.00;30.60;;;;;;5095897;28;20233;-76
2021/05/25 10:56:52;;;;;;;4.38;1.45;;;15.00;31.40;;;;;;5093132;28;20280;-76
2021/05/25 10:59:19;;;;;;;2.20;1.42;;;14.90;31.40;;;;;;5092306;28;20292;-76
2021/05/25 11:01:53;;;;;;;2.47;1.30;;;15.00;31.60;;;;;;5092851;28;20236;-76
2021/05/25 11:04:23;;;;;;;6.53;1.20;;;15.30;30.40;;;;;;5094534;28;20193;-76
2021/05/25 11:06:50;;;;;;;5.07;1.30;;;15.50;30.00;;;;;;5092231;28;20461;-75
2021/05/25 11:09:28;;;;;;;11.63;1.30;;;15.40;30.30;;;;;;5093947;28;20227;-75
2021/05/25 11:12:11;;;;;;;4.72;1.10;;;15.30;29.40;;;;;;5091954;28;20478;-75
2021/05/25 11:14:38;;;;;;;5.72;1.20;;;15.30;29.00;;;;;;5092415;28;20288;-76
2021/05/25 11:17:38;;;;;;;18.30;1.70;;;15.20;29.30;;;;;;5093288;28;20258;-77
2021/05/25 11:20:53;;;;;;;3.07;1.10;;;15.50;29.30;;;;;;5012655;28;20418;-77
2021/05/25 11:23:41;;;;;;;5.60;1.10;;;15.80;28.30;;;;;;5010723;28;20454;-77
2021/05/25 11:26:08;;;;;;;4.50;1.20;;;15.70;28.60;;;;;;5005935;28;20475;-77
2021/05/25 11:29:18;;;;;;;5.00;1.40;;;15.10;32.70;;;;;;5009644;28;20429;-76
2021/05/25 11:31:44;;;;;;;1.98;1.40;;;14.30;38.50;;;;;;5005948;28;20326;-76
2021/05/25 11:34:11;;;;;;;5.32;1.45;;;13.20;47.00;;;;;;5014634;28;20292;-77
2021/05/25 11:36:38;;;;;;;3.17;1.50;;;12.10;56.30;;;;;;5013877;28;20227;-78
2021/05/25 11:39:06;;;;;;;1.73;1.20;;;11.50;60.20;;;;;;5013659;28;20256;-78
2021/05/25 11:41:33;;;;;;;0.95;0.80;;;11.20;59.80;;;;;;5014569;28;20304;-77
2021/05/25 11:44:07;;;;;;;3.30;1.00;;;11.30;55.80;;;;;;5014305;28;20218;-77
2021/05/25 11:46:45;;;;;;;2.97;0.93;;;11.90;60.40;;;;;;5015052;28;20893;-77
2021/05/25 11:49:12;;;;;;;3.53;1.35;;;12.50;57.30;;;;;;5013925;28;20339;-78
2021/05/25 11:51:39;;;;;;;4.25;1.20;;;12.90;57.80;;;;;;5080049;28;20233;-78
2021/05/25 11:54:16;;;;;;;2.42;1.27;;;13.20;52.20;;;;;;5097268;28;20230;-77
2021/05/25 11:56:46;;;;;;;3.22;1.25;;;13.70;49.70;;;;;;5094952;28;20276;-78
2021/05/25 11:59:14;;;;;;;4.88;1.55;;;13.90;47.60;;;;;;5095679;28;20246;-78
2021/05/25 12:01:47;;;;;;;4.97;1.40;;;14.20;49.10;;;;;;5095313;28;20271;-77
2021/05/25 12:04:14;;;;;;;1.48;1.20;;;14.50;46.50;;;;;;5095147;28;20273;-77
2021/05/25 12:06:51;;;;;;;3.25;1.30;;;14.60;45.90;;;;;;5096348;28;20291;-77
2021/05/25 12:09:19;;;;;;;3.55;1.90;;;14.60;43.80;;;;;;5097534;28;20225;-77
2021/05/25 12:11:47;;;;;;;5.45;1.60;;;14.20;45.40;;;;;;5097048;28;20235;-77
2021/05/25 12:14:16;;;;;;;5.20;1.40;;;13.90;48.60;;;;;;5097073;28;20302;-77
2021/05/25 12:16:46;;;;;;;7.43;1.80;;;14.00;45.50;;;;;;5096972;28;20213;-77
2021/05/25 12:19:22;;;;;;;6.03;1.42;;;14.20;44.40;;;;;;5107394;28;20202;-76
2021/05/25 12:21:49;;;;;;;3.38;1.50;;;14.50;42.00;;;;;;5101981;28;20799;-77
2021/05/25 12:24:26;;;;;;;3.47;1.20;;;14.60;43.80;;;;;;5103166;28;20251;-76
2021/05/25 12:26:54;;;;;;;3.65;1.20;;;14.70;40.60;;;;;;5094937;28;20235;-78
2021/05/25 12:29:21;;;;;;;3.87;1.60;;;14.90;41.60;;;;;;5095502;28;20244;-76
2021/05/25 12:31:48;;;;;;;3.97;1.30;;;15.00;39.70;;;;;;5094648;28;20565;-77
2021/05/25 12:34:17;;;;;;;3.38;1.60;;;15.20;36.60;;;;;;5095584;28;20459;-77
2021/05/25 12:36:54;;;;;;;1.23;0.87;;;15.30;33.80;;;;;;5094722;28;20209;-77
2021/05/25 12:39:34;;;;;;;2.50;1.07;;;15.30;34.40;;;;;;5094250;28;20830;-76
2021/05/25 12:42:01;;;;;;;1.70;0.80;;;15.70;34.70;;;;;;5093897;28;20464;-77
2021/05/25 12:44:29;;;;;;;2.37;1.07;;;15.90;31.10;;;;;;5096520;28;20422;-77
2021/05/25 12:46:59;;;;;;;1.50;0.80;;;16.30;30.70;;;;;;5095139;28;20513;-77
2021/05/25 12:49:30;;;;;;;2.37;1.17;;;16.70;29.90;;;;;;5094925;28;20489;-75
2021/05/25 12:52:19;;;;;;;6.27;1.10;;;16.70;29.70;;;;;;5094494;28;20503;-76
2021/05/25 12:54:54;;;;;;;3.10;0.87;;;16.50;29.40;;;;;;5095009;28;20455;-76
2021/05/25 12:57:21;;;;;;;1.30;0.73;;;16.30;29.20;;;;;;5095305;28;20566;-76